KARM Airport (Wharton Rgnl) Information

FAA: ARM - ICAO: KARM

KARM Airport Location

State Texas
County Wharton
City Wharton
KARM Airport is 5 miles southwest of Wharton, TX.
Latitude 29-15-15.4000N
Longitude 096-09-15.8000W
Elevation 100ft

KARM Airport METARs

METAR KARM 201755Z AUTO 20015G20KT 10SM 32/22 A2985 RMK AO2 T03150215 10320 20235
Altimeter 29.85"
Temperature 31.5°C (88.7°F)
Wind 200° at 15KT with gusts to 20KT
Clouds at 0ft
Visibility 10.0mi
Time observed: 2021-06-20T17:55:00Z

KARM Airport Details

Status Operational
Activation N/A
Ownership Public
Usage Public
Chart HOUSTON
ATC on-site No
Beacon schedule sunset-sunrise
Beacon color clear green

KARM Airport Contacts

Owner CITY OF WHARTON
Owner address 120 E CANEY, WHARTON, TX 77488
Owner phone 979-532-2491
Manager GARY D. COLLINS
Manager address 4613 CATCHIN, FORT WORTH, TX 76118
Manager phone 817-281-1670

KARM Airport (Wharton Rgnl) Radio Frequencies

KARM (Airport) Radio Frequencies

UNICOM 122.7
Common traffic advisory frequency (CTAF) 122.7